Latest Coastal Weather Observations for Adele Island

IDW60701

Issued at 11:02 am WST Thursday 30 June 2016 (issued every 10 minutes, with the page automatically refreshed every 10 minutes)

About coastal observations | Map of coastal stations | Coastal observations for WA | Marine services | Other Formats
Station Details ID: 200735 Name: ADELE ISLAND Lat: -15.51 Lon: 123.16 Height: 4.6 m
Data from the previous 72 hours. | See also: Recent months at Adele Island
Date/Time
WST
Temp
°C
Wind Pressure Rain since
9am
mm
Weather Cloud Vis
km
Sea
Height
m
Swell
Dir  Spd
kts
Gust
kts
hPa Trend Height
m
Period
s
Dir
30/11:00am - E 11 13 1015.5 - - - - - - - - -
30/10:30am - E 10 12 1016.1 - - - - - - - - -
30/10:00am - E 11 14 1016.0 - - - - - - - - -
30/09:30am - E 11 14 1016.0 - - - - - - - - -
30/09:00am - E 10 13 1016.2 - - - - - - - - -
30/08:30am - E 11 13 1016.2 - - - - - - - - -
30/08:00am - E 10 12 1016.0 - - - - - - - - -
30/07:30am - ENE 11 12 1015.8 - - - - - - - - -
30/07:00am - ENE 10 13 1015.5 - - - - - - - - -
30/06:30am - E 7 11 1015.3 - - - - - - - - -
30/06:00am - ENE 7 9 1015.0 - - - - - - - - -
30/05:30am - ENE 8 11 1014.8 - - - - - - - - -
30/05:00am - NE 9 11 1014.7 - - - - - - - - -
30/04:30am - ENE 9 11 1014.7 - - - - - - - - -
30/04:00am - ENE 9 10 1014.8 - - - - - - - - -
30/03:30am - NE 10 12 1014.7 - - - - - - - - -
30/03:00am - NE 9 10 1014.8 - - - - - - - - -
30/02:30am - NE 9 10 1015.1 - - - - - - - - -
30/02:00am - NNE 7 9 1015.4 - - - - - - - - -
30/01:30am - NNE 7 8 1015.6 - - - - - - - - -
30/01:00am - NNE 6 7 1015.9 - - - - - - - - -
30/12:30am - NNE 5 6 1016.3 - - - - - - - - -
30/12:00am - NNE 5 7 1016.6 - - - - - - - - -
 
Date/Time
WST
Temp
°C
Wind Pressure Rain since
9am
mm
Weather Cloud Vis
km
Sea
Height
m
Swell
Dir  Spd
kts
Gust
kts
hPa Trend Height
m
Period
s
Dir
29/11:30pm - NNE 5 6 1016.8 - - - - - - - - -
29/11:00pm - NNE 6 7 1016.9 - - - - - - - - -
29/10:30pm - NNE 6 7 1016.9 - - - - - - - - -
29/10:00pm - NE 6 7 1016.9 - - - - - - - - -
29/09:30pm - NE 6 7 1017.2 - - - - - - - - -
29/09:00pm - NNE 7 8 1017.1 - - - - - - - - -
29/08:30pm - NNE 8 10 1016.9 - - - - - - - - -
29/08:00pm - NNE 8 9 1016.7 - - - - - - - - -
29/07:30pm - NNE 9 11 1016.4 - - - - - - - - -
29/07:00pm - NE 9 11 1016.0 - - - - - - - - -
29/06:30pm - NE 9 11 1015.7 - - - - - - - - -
29/06:00pm - NE 10 13 1015.4 - - - - - - - - -
29/05:30pm - NE 12 14 1015.0 - - - - - - - - -
29/05:00pm - NE 12 15 1014.8 - - - - - - - - -
29/04:30pm - NE 12 15 1014.5 - - - - - - - - -
29/04:00pm - NE 14 17 1014.2 - - - - - - - - -
29/03:30pm - NE 13 16 1014.0 - - - - - - - - -
29/03:00pm - NE 14 17 1013.9 - - - - - - - - -
29/02:30pm - NE 15 18 1013.7 - - - - - - - - -
29/02:00pm - NE 13 17 1013.8 - - - - - - - - -
29/01:30pm - NE 14 17 1013.9 - - - - - - - - -
29/01:00pm - NE 13 15 1014.1 - - - - - - - - -
29/12:30pm - ENE 13 17 1014.4 - - - - - - - - -
29/12:00pm - ENE 13 16 1014.8 - - - - - - - - -
29/11:30am - ENE 14 19 1015.2 - - - - - - - - -
29/11:00am - ENE 13 16 1015.5 - - - - - - - - -
29/10:30am - ENE 13 17 1015.8 - - - - - - - - -
29/10:00am - ENE 13 16 1015.9 - - - - - - - - -
29/09:30am - ENE 14 17 1016.0 - - - - - - - - -
29/09:00am - ENE 14 17 1016.1 - - - - - - - - -
29/08:30am - ENE 14 16 1016.0 - - - - - - - - -
29/08:00am - ENE 13 16 1015.7 - - - - - - - - -
29/07:30am - ENE 12 15 1015.4 - - - - - - - - -
29/07:00am - ENE 12 14 1015.1 - - - - - - - - -
29/06:30am - ENE 13 15 1015.0 - - - - - - - - -
29/06:00am - NE 8 9 1014.8 - - - - - - - - -
29/05:30am - ENE 8 10 1014.6 - - - - - - - - -
29/05:00am - ENE 8 10 1014.3 - - - - - - - - -
29/04:30am - ENE 8 9 1014.4 - - - - - - - - -
29/04:00am - ENE 7 9 1014.2 - - - - - - - - -
29/03:30am - ENE 7 8 1014.2 - - - - - - - - -
29/03:00am - NE 7 9 1014.2 - - - - - - - - -
29/02:30am - NE 7 7 1014.4 - - - - - - - - -
29/02:00am - NE 7 9 1014.7 - - - - - - - - -
29/01:30am - NE 7 8 1014.9 - - - - - - - - -
29/01:00am - NE 7 8 1015.2 - - - - - - - - -
29/12:30am - NE 7 8 1015.4 - - - - - - - - -
29/12:00am - NE 6 7 1015.4 - - - - - - - - -
 
Date/Time
WST
Temp
°C
Wind Pressure Rain since
9am
mm
Weather Cloud Vis
km
Sea
Height
m
Swell
Dir  Spd
kts
Gust
kts
hPa Trend Height
m
Period
s
Dir
28/11:30pm - NE 6 7 1015.3 - - - - - - - - -
28/11:00pm - NNE 6 8 1015.2 - - - - - - - - -
28/10:30pm - NNE 7 8 1015.3 - - - - - - - - -
28/10:00pm - N 8 8 1015.4 - - - - - - - - -
28/09:30pm - NNE 7 9 1015.8 - - - - - - - - -
28/09:00pm - NNE 7 8 1015.8 - - - - - - - - -
28/08:30pm - NNE 6 7 1015.8 - - - - - - - - -
28/08:00pm - NNE 7 9 1015.7 - - - - - - - - -
28/07:30pm - NNE 7 9 1015.5 - - - - - - - - -
28/07:00pm - NE 7 8 1015.1 - - - - - - - - -
28/06:30pm - NE 7 8 1014.8 - - - - - - - - -
28/06:00pm - NE 6 7 1014.4 - - - - - - - - -
28/05:30pm - ENE 6 8 1013.9 - - - - - - - - -
28/05:00pm - ENE 8 9 1013.6 - - - - - - - - -
28/04:30pm - ENE 8 10 1013.3 - - - - - - - - -
28/04:00pm - ENE 8 10 1013.1 - - - - - - - - -
28/03:30pm - ENE 9 12 1012.8 - - - - - - - - -
28/03:00pm - ENE 9 13 1012.7 - - - - - - - - -
28/02:30pm - ENE 10 13 1012.7 - - - - - - - - -
28/02:00pm - NE 10 13 1012.8 - - - - - - - - -
28/01:30pm - ENE 12 15 1012.8 - - - - - - - - -
28/01:00pm - ENE 12 15 1013.1 - - - - - - - - -
28/12:30pm - E 12 14 1013.5 - - - - - - - - -
28/12:00pm - E 12 15 1013.8 - - - - - - - - -
28/11:30am - E 12 16 1014.1 - - - - - - - - -
28/11:00am - E 12 15 1014.5 - - - - - - - - -
28/10:30am - E 10 13 1014.9 - - - - - - - - -
28/10:00am - E 10 13 1015.1 - - - - - - - - -
28/09:30am - E 9 12 1015.2 - - - - - - - - -
28/09:00am - E 9 11 1015.0 - - - - - - - - -
28/08:30am - E 9 10 1014.7 - - - - - - - - -
28/08:00am - E 6 7 1014.4 - - - - - - - - -
28/07:30am - ENE 7 9 1014.2 - - - - - - - - -
28/07:00am - ENE 7 8 1013.8 - - - - - - - - -
28/06:30am - ENE 5 7 1013.6 - - - - - - - - -
28/06:00am - ENE 6 7 1013.2 - - - - - - - - -
28/05:30am - ENE 5 5 1012.9 - - - - - - - - -
28/05:00am - ENE 5 6 1012.7 - - - - - - - - -
28/04:30am - ENE 5 6 1012.5 - - - - - - - - -
28/04:00am - ENE 5 6 1012.3 - - - - - - - - -
28/03:30am - ENE 5 5 1012.2 - - - - - - - - -
28/03:00am - ENE 5 5 1012.3 - - - - - - - - -
28/02:30am - ENE 3 4 1012.4 - - - - - - - - -
28/02:00am - ENE 4 4 1012.5 - - - - - - - - -
28/01:30am - E 4 5 1012.6 - - - - - - - - -
28/01:00am - E 4 5 1012.8 - - - - - - - - -
28/12:30am - SE 4 5 1013.1 - - - - - - - - -
28/12:00am - E 5 6 1013.2 - - - - - - - - -
 
Date/Time
WST
Temp
°C
Wind Pressure Rain since
9am
mm
Weather Cloud Vis
km
Sea
Height
m
Swell
Dir  Spd
kts
Gust
kts
hPa Trend Height
m
Period
s
Dir
27/11:30pm - E 6 6 1013.5 - - - - - - - - -
27/11:00pm - ESE 7 7 1013.7 - - - - - - - - -
27/10:30pm - ESE 7 7 1013.7 - - - - - - - - -
27/10:00pm - ESE 6 7 1013.8 - - - - - - - - -
27/09:30pm - ESE 6 7 1013.8 - - - - - - - - -
27/09:00pm - ESE 6 6 1013.8 - - - - - - - - -
27/08:30pm - ENE 5 5 1013.7 - - - - - - - - -
27/08:00pm - ENE 4 5 1013.6 - - - - - - - - -
27/07:30pm - ENE 4 5 1013.5 - - - - - - - - -
27/07:00pm - ENE 4 5 1013.2 - - - - - - - - -
27/06:30pm - E 5 5 1012.9 - - - - - - - - -
27/06:00pm - E 5 6 1012.5 - - - - - - - - -
27/05:30pm - ESE 6 6 1012.2 - - - - - - - - -
27/05:00pm - SSE 6 8 1011.9 - - - - - - - - -
27/04:30pm - ESE 7 8 1011.5 - - - - - - - - -
27/04:00pm - SE 9 11 1011.3 - - - - - - - - -
27/03:30pm - ESE 9 12 1011.0 - - - - - - - - -
27/03:00pm - ESE 10 13 1010.8 - - - - - - - - -
27/02:30pm - SE 11 13 1010.9 - - - - - - - - -
27/02:00pm - ESE 11 15 1011.0 - - - - - - - - -
27/01:30pm - ESE 12 15 1011.2 - - - - - - - - -
27/01:00pm - ESE 13 17 1011.5 - - - - - - - - -
27/12:30pm - SE 14 17 1011.8 - - - - - - - - -
27/12:00pm - SE 13 17 1012.2 - - - - - - - - -
27/11:30am - SE 14 19 1012.7 - - - - - - - - -

Other Formats:

Comma delimited format used in spreadsheet applications
http://www.bom.gov.au/fwo/IDW60701/IDW60701.94210.axf

JavaScript Object Notation format (JSON) in row-major order
http://www.bom.gov.au/fwo/IDW60701/IDW60701.94210.json